NJE597N LIBR-LIRP
Flight info
| Callsign | NJE597N |
|---|---|
| Flight time | N/A |
| Altitude | 18000 |
| Route | FASAN P92 BAR/N0455F400 DCT EKMOT DCT ASPIR DCT IPGOR DCT IBRID DCT KUGIX/N0453F390 Y662 AKUTO L12 MAREL |
| Aircraft | CL60/M-SADE3FGHIJ3J4J7P2RWXY/HB1D1 |
Departure
| Time | N/A |
|---|---|
| Airport | Brindisi Airport (LIBR) |
Arrival
| Time | 2026-04-29 21:19 |
|---|---|
| Airport | Pisa International Airport (LIRP) |
| Time | Latitude | Longitude | Altitude | Speed | Heading |
|---|---|---|---|---|---|
| 2026-04-29 20:22 | 41.29021 | 16.25683 | 40089 ft | 401 kts | 289° |
| 2026-04-29 20:22 | 41.29994 | 16.22186 | 40007 ft | 407 kts | 289° |
| 2026-04-29 20:23 | 41.31956 | 16.15122 | 40022 ft | 412 kts | 289° |
| 2026-04-29 20:23 | 41.33973 | 16.07844 | 40017 ft | 416 kts | 289° |
| 2026-04-29 20:24 | 41.35981 | 16.00580 | 40012 ft | 417 kts | 289° |
| 2026-04-29 20:24 | 41.37977 | 15.93336 | 40017 ft | 417 kts | 289° |
| 2026-04-29 20:25 | 41.39968 | 15.86088 | 40017 ft | 416 kts | 289° |
| 2026-04-29 20:25 | 41.41945 | 15.78873 | 40019 ft | 417 kts | 290° |
| 2026-04-29 20:26 | 41.43913 | 15.71671 | 40021 ft | 417 kts | 289° |
| 2026-04-29 20:26 | 41.45888 | 15.64420 | 40024 ft | 417 kts | 289° |
| 2026-04-29 20:27 | 41.47543 | 15.58330 | 40029 ft | 418 kts | 289° |
| 2026-04-29 20:27 | 41.49851 | 15.49810 | 40032 ft | 418 kts | 289° |
| 2026-04-29 20:28 | 41.51812 | 15.42548 | 40032 ft | 418 kts | 289° |
| 2026-04-29 20:28 | 41.53783 | 15.35225 | 40037 ft | 418 kts | 289° |
| 2026-04-29 20:29 | 41.55740 | 15.27935 | 40039 ft | 418 kts | 289° |
| 2026-04-29 20:29 | 41.57696 | 15.20628 | 40042 ft | 419 kts | 289° |
| 2026-04-29 20:30 | 41.59660 | 15.13270 | 40047 ft | 420 kts | 289° |
| 2026-04-29 20:30 | 41.61609 | 15.05946 | 40044 ft | 419 kts | 289° |
| 2026-04-29 20:31 | 41.63569 | 14.98556 | 40047 ft | 418 kts | 289° |
| 2026-04-29 20:31 | 41.65522 | 14.91175 | 40051 ft | 418 kts | 289° |
| 2026-04-29 20:32 | 41.67444 | 14.83887 | 40055 ft | 418 kts | 289° |
| 2026-04-29 20:32 | 41.69567 | 14.78050 | 40051 ft | 420 kts | 301° |
| 2026-04-29 20:33 | 41.73280 | 14.70329 | 40184 ft | 416 kts | 301° |
| 2026-04-29 20:33 | 41.76437 | 14.63738 | 40047 ft | 423 kts | 301° |
| 2026-04-29 20:34 | 41.79589 | 14.57143 | 40062 ft | 420 kts | 301° |
| 2026-04-29 20:34 | 41.82729 | 14.50558 | 40069 ft | 420 kts | 301° |
| 2026-04-29 20:35 | 41.85901 | 14.43893 | 40087 ft | 421 kts | 301° |
| 2026-04-29 20:35 | 41.89032 | 14.37301 | 40103 ft | 421 kts | 301° |
| 2026-04-29 20:36 | 41.92197 | 14.30622 | 40104 ft | 422 kts | 301° |
| 2026-04-29 20:36 | 41.95355 | 14.23945 | 40109 ft | 422 kts | 301° |
| 2026-04-29 20:37 | 41.98497 | 14.17286 | 40103 ft | 422 kts | 301° |
| 2026-04-29 20:37 | 42.01648 | 14.10595 | 40111 ft | 422 kts | 301° |
| 2026-04-29 20:38 | 42.04796 | 14.03894 | 40107 ft | 422 kts | 301° |
| 2026-04-29 20:38 | 42.07942 | 13.97184 | 40108 ft | 422 kts | 301° |
| 2026-04-29 20:39 | 42.11080 | 13.90476 | 40112 ft | 422 kts | 301° |
| 2026-04-29 20:39 | 42.14202 | 13.83785 | 40110 ft | 422 kts | 301° |
| 2026-04-29 20:40 | 42.17327 | 13.77075 | 40113 ft | 421 kts | 301° |
| 2026-04-29 20:40 | 42.20490 | 13.70393 | 40111 ft | 422 kts | 302° |
| 2026-04-29 20:41 | 42.23689 | 13.63811 | 40110 ft | 422 kts | 302° |
| 2026-04-29 20:41 | 42.26937 | 13.57107 | 40118 ft | 422 kts | 302° |
| 2026-04-29 20:42 | 42.30145 | 13.50471 | 40122 ft | 423 kts | 302° |
| 2026-04-29 20:42 | 42.33373 | 13.43777 | 40118 ft | 423 kts | 302° |
| 2026-04-29 20:43 | 42.36586 | 13.37100 | 40116 ft | 422 kts | 302° |
| 2026-04-29 20:43 | 42.39787 | 13.30432 | 40114 ft | 421 kts | 301° |
| 2026-04-29 20:44 | 42.42992 | 13.23740 | 40112 ft | 421 kts | 301° |
| 2026-04-29 20:44 | 42.46191 | 13.17044 | 40113 ft | 421 kts | 301° |
| 2026-04-29 20:45 | 42.49387 | 13.10341 | 40116 ft | 421 kts | 301° |
| 2026-04-29 20:45 | 42.52571 | 13.03649 | 40118 ft | 421 kts | 301° |
| 2026-04-29 20:46 | 42.55753 | 12.96942 | 40114 ft | 422 kts | 302° |
| 2026-04-29 20:46 | 42.58919 | 12.90258 | 40105 ft | 422 kts | 302° |
| 2026-04-29 20:47 | 42.62104 | 12.83515 | 40093 ft | 421 kts | 301° |
| 2026-04-29 20:47 | 42.65252 | 12.76839 | 40082 ft | 421 kts | 301° |
| 2026-04-29 20:48 | 42.68393 | 12.70160 | 40074 ft | 421 kts | 301° |
| 2026-04-29 20:48 | 42.71558 | 12.63415 | 40068 ft | 420 kts | 302° |
| 2026-04-29 20:49 | 42.74685 | 12.56737 | 40065 ft | 420 kts | 301° |
| 2026-04-29 20:49 | 42.77812 | 12.50043 | 40065 ft | 419 kts | 302° |
| 2026-04-29 20:50 | 42.80955 | 12.43300 | 40066 ft | 419 kts | 302° |
| 2026-04-29 20:50 | 42.84085 | 12.36569 | 40065 ft | 420 kts | 302° |
| 2026-04-29 20:51 | 42.87200 | 12.29855 | 40063 ft | 420 kts | 301° |
| 2026-04-29 20:51 | 42.90860 | 12.23618 | 40057 ft | 422 kts | 312° |
| 2026-04-29 20:52 | 42.94914 | 12.17883 | 39418 ft | 417 kts | 312° |
| 2026-04-29 20:52 | 42.96911 | 12.15047 | 38889 ft | 412 kts | 312° |
| 2026-04-29 20:52 | 42.98893 | 12.12231 | 38322 ft | 407 kts | 312° |
| 2026-04-29 20:53 | 43.00872 | 12.09415 | 37771 ft | 402 kts | 312° |
| 2026-04-29 20:53 | 43.02778 | 12.06700 | 37252 ft | 397 kts | 312° |
| 2026-04-29 20:53 | 43.04674 | 12.03996 | 36754 ft | 392 kts | 312° |
| 2026-04-29 20:53 | 43.06559 | 12.01305 | 36318 ft | 387 kts | 312° |
| 2026-04-29 20:54 | 43.10276 | 11.95988 | 35328 ft | 385 kts | 312° |
| 2026-04-29 20:54 | 43.12101 | 11.93374 | 34837 ft | 384 kts | 312° |
| 2026-04-29 20:54 | 43.13953 | 11.90719 | 34297 ft | 383 kts | 312° |
| 2026-04-29 20:55 | 43.15769 | 11.88114 | 33828 ft | 380 kts | 313° |
| 2026-04-29 20:55 | 43.17587 | 11.85503 | 33316 ft | 377 kts | 312° |
| 2026-04-29 20:55 | 43.19382 | 11.82922 | 32835 ft | 375 kts | 313° |
| 2026-04-29 20:55 | 43.21184 | 11.80329 | 32330 ft | 375 kts | 313° |
| 2026-04-29 20:56 | 43.22979 | 11.77743 | 31835 ft | 373 kts | 313° |
| 2026-04-29 20:56 | 43.24757 | 11.75180 | 31344 ft | 371 kts | 312° |
| 2026-04-29 20:56 | 43.26523 | 11.72631 | 30852 ft | 369 kts | 312° |
| 2026-04-29 20:56 | 43.28306 | 11.70056 | 30356 ft | 366 kts | 312° |
| 2026-04-29 20:57 | 43.30045 | 11.67543 | 29876 ft | 364 kts | 312° |
| 2026-04-29 20:57 | 43.31780 | 11.65031 | 29396 ft | 361 kts | 312° |
| 2026-04-29 20:57 | 43.33483 | 11.62565 | 28919 ft | 358 kts | 312° |
| 2026-04-29 20:57 | 43.35178 | 11.60108 | 28446 ft | 355 kts | 312° |
| 2026-04-29 20:58 | 43.36882 | 11.57637 | 27975 ft | 352 kts | 312° |
| 2026-04-29 20:58 | 43.38544 | 11.55223 | 27514 ft | 349 kts | 312° |
| 2026-04-29 20:58 | 43.40225 | 11.52781 | 27045 ft | 346 kts | 312° |
| 2026-04-29 20:58 | 43.41857 | 11.50407 | 26592 ft | 344 kts | 312° |
| 2026-04-29 20:59 | 43.43500 | 11.48014 | 26137 ft | 341 kts | 312° |
| 2026-04-29 20:59 | 43.45088 | 11.45631 | 25685 ft | 338 kts | 307° |
| 2026-04-29 20:59 | 43.46251 | 11.42852 | 25182 ft | 336 kts | 291° |
| 2026-04-29 20:59 | 43.46719 | 11.39740 | 24700 ft | 335 kts | 274° |
| 2026-04-29 21:00 | 43.46455 | 11.36545 | 24156 ft | 338 kts | 258° |
| 2026-04-29 21:00 | 43.45717 | 11.33501 | 23696 ft | 336 kts | 253° |
| 2026-04-29 21:00 | 43.44949 | 11.30471 | 23262 ft | 333 kts | 254° |
| 2026-04-29 21:00 | 43.44197 | 11.27490 | 22827 ft | 330 kts | 254° |
| 2026-04-29 21:01 | 43.43446 | 11.24520 | 22390 ft | 327 kts | 253° |
| 2026-04-29 21:01 | 43.42694 | 11.21547 | 21951 ft | 327 kts | 253° |
| 2026-04-29 21:01 | 43.41948 | 11.18604 | 21518 ft | 328 kts | 253° |
| 2026-04-29 21:01 | 43.41188 | 11.15605 | 21073 ft | 327 kts | 253° |
| 2026-04-29 21:02 | 43.40434 | 11.12640 | 20642 ft | 326 kts | 253° |
| 2026-04-29 21:02 | 43.39684 | 11.09691 | 20206 ft | 325 kts | 253° |
| 2026-04-29 21:02 | 43.38941 | 11.06775 | 19775 ft | 323 kts | 253° |
| 2026-04-29 21:02 | 43.38202 | 11.03877 | 19345 ft | 321 kts | 253° |
| 2026-04-29 21:03 | 43.37464 | 11.00989 | 18923 ft | 319 kts | 252° |
| 2026-04-29 21:03 | 43.36721 | 10.98086 | 18498 ft | 317 kts | 252° |
| 2026-04-29 21:03 | 43.35988 | 10.95223 | 18077 ft | 315 kts | 252° |
| 2026-04-29 21:03 | 43.35256 | 10.92371 | 17667 ft | 314 kts | 252° |
| 2026-04-29 21:04 | 43.34516 | 10.89489 | 17244 ft | 312 kts | 252° |
| 2026-04-29 21:04 | 43.33797 | 10.86694 | 16828 ft | 311 kts | 252° |
| 2026-04-29 21:04 | 43.33067 | 10.83858 | 16413 ft | 309 kts | 252° |
| 2026-04-29 21:04 | 43.32357 | 10.81106 | 16006 ft | 308 kts | 252° |
| 2026-04-29 21:05 | 43.31641 | 10.78330 | 15595 ft | 306 kts | 252° |
| 2026-04-29 21:05 | 43.30931 | 10.75581 | 15181 ft | 305 kts | 252° |
| 2026-04-29 21:05 | 43.30212 | 10.72802 | 14768 ft | 304 kts | 252° |
| 2026-04-29 21:05 | 43.29505 | 10.70074 | 14368 ft | 302 kts | 252° |
| 2026-04-29 21:06 | 43.28793 | 10.67328 | 13966 ft | 301 kts | 252° |
| 2026-04-29 21:06 | 43.28359 | 10.64582 | 13572 ft | 297 kts | 270° |
| 2026-04-29 21:06 | 43.28581 | 10.61801 | 13169 ft | 294 kts | 280° |
| 2026-04-29 21:06 | 43.28914 | 10.59051 | 12769 ft | 292 kts | 279° |
| 2026-04-29 21:07 | 43.29239 | 10.56305 | 12383 ft | 290 kts | 279° |
| 2026-04-29 21:07 | 43.29556 | 10.53609 | 12005 ft | 287 kts | 279° |
| 2026-04-29 21:07 | 43.29924 | 10.50914 | 11620 ft | 285 kts | 287° |
| 2026-04-29 21:07 | 43.30603 | 10.48395 | 11216 ft | 284 kts | 292° |
| 2026-04-29 21:08 | 43.31330 | 10.45884 | 10845 ft | 281 kts | 291° |
| 2026-04-29 21:08 | 43.32042 | 10.43406 | 10477 ft | 279 kts | 291° |
| 2026-04-29 21:08 | 43.32754 | 10.40921 | 10106 ft | 276 kts | 291° |
| 2026-04-29 21:08 | 43.33452 | 10.38485 | 9742 ft | 274 kts | 291° |
| 2026-04-29 21:09 | 43.34145 | 10.36056 | 9380 ft | 271 kts | 291° |
| 2026-04-29 21:09 | 43.34822 | 10.33681 | 9032 ft | 269 kts | 290° |
| 2026-04-29 21:09 | 43.35506 | 10.31279 | 8663 ft | 269 kts | 291° |
| 2026-04-29 21:09 | 43.36179 | 10.28912 | 8308 ft | 266 kts | 291° |
| 2026-04-29 21:10 | 43.36856 | 10.26524 | 7957 ft | 263 kts | 291° |
| 2026-04-29 21:10 | 43.37516 | 10.24196 | 7608 ft | 261 kts | 291° |
| 2026-04-29 21:10 | 43.38166 | 10.21901 | 7270 ft | 259 kts | 291° |
| 2026-04-29 21:10 | 43.38739 | 10.19558 | 6910 ft | 256 kts | 277° |
| 2026-04-29 21:11 | 43.38519 | 10.17203 | 6531 ft | 253 kts | 250° |
| 2026-04-29 21:11 | 43.38097 | 10.14851 | 6156 ft | 252 kts | 269° |
| 2026-04-29 21:11 | 43.38544 | 10.12565 | 5776 ft | 252 kts | 303° |
| 2026-04-29 21:11 | 43.39791 | 10.10952 | 5397 ft | 250 kts | 335° |
| 2026-04-29 21:12 | 43.41476 | 10.10622 | 5005 ft | 245 kts | 14° |
| 2026-04-29 21:12 | 43.42888 | 10.11741 | 4626 ft | 239 kts | 51° |
| 2026-04-29 21:12 | 43.43856 | 10.13615 | 4272 ft | 236 kts | 54° |
| 2026-04-29 21:12 | 43.44972 | 10.15255 | 3927 ft | 236 kts | 43° |
| 2026-04-29 21:13 | 43.46239 | 10.16668 | 3582 ft | 235 kts | 39° |
| 2026-04-29 21:13 | 43.47554 | 10.18032 | 3236 ft | 233 kts | 38° |
| 2026-04-29 21:13 | 43.48847 | 10.19360 | 2896 ft | 231 kts | 39° |
| 2026-04-29 21:13 | 43.50131 | 10.20678 | 2571 ft | 229 kts | 39° |
| 2026-04-29 21:14 | 43.51391 | 10.21964 | 2478 ft | 216 kts | 38° |
| 2026-04-29 21:14 | 43.52544 | 10.23142 | 2492 ft | 199 kts | 38° |
| 2026-04-29 21:14 | 43.53608 | 10.24230 | 2495 ft | 185 kts | 39° |
| 2026-04-29 21:14 | 43.54632 | 10.25282 | 2485 ft | 181 kts | 39° |
| 2026-04-29 21:15 | 43.55636 | 10.26315 | 2476 ft | 182 kts | 39° |
| 2026-04-29 21:15 | 43.56661 | 10.27368 | 2478 ft | 182 kts | 39° |
| 2026-04-29 21:15 | 43.57678 | 10.28414 | 2362 ft | 187 kts | 39° |
| 2026-04-29 21:15 | 43.58723 | 10.29489 | 2117 ft | 186 kts | 39° |
| 2026-04-29 21:16 | 43.59739 | 10.30530 | 1897 ft | 177 kts | 39° |
| 2026-04-29 21:16 | 43.60700 | 10.31516 | 1644 ft | 166 kts | 39° |
| 2026-04-29 21:16 | 43.61561 | 10.32397 | 1449 ft | 143 kts | 39° |
| 2026-04-29 21:16 | 43.62317 | 10.33169 | 1295 ft | 127 kts | 39° |
| 2026-04-29 21:17 | 43.63008 | 10.33880 | 1101 ft | 123 kts | 39° |
| 2026-04-29 21:17 | 43.63690 | 10.34589 | 921 ft | 123 kts | 39° |
| 2026-04-29 21:17 | 43.64374 | 10.35287 | 755 ft | 122 kts | 39° |
| 2026-04-29 21:17 | 43.65050 | 10.35987 | 600 ft | 121 kts | 39° |
| 2026-04-29 21:18 | 43.65718 | 10.36677 | 456 ft | 121 kts | 38° |
| 2026-04-29 21:18 | 43.66395 | 10.37377 | 318 ft | 120 kts | 38° |
| 2026-04-29 21:18 | 43.67070 | 10.38067 | 162 ft | 120 kts | 37° |
| 2026-04-29 21:18 | 43.67726 | 10.38752 | 21 ft | 114 kts | 36° |
| 2026-04-29 21:19 | 43.68293 | 10.39327 | 7 ft | 89 kts | 37° |
| 2026-04-29 21:19 | 43.68735 | 10.39792 | 8 ft | 69 kts | 36° |
| 2026-04-29 21:19 | 43.68998 | 10.40061 | 8 ft | 31 kts | 37° |
| 2026-04-29 21:19 | 43.69145 | 10.40223 | 8 ft | 23 kts | 40° |
| 2026-04-29 21:20 | 43.69273 | 10.40299 | 8 ft | 8 kts | 326° |
| 2026-04-29 21:20 | 43.69305 | 10.40249 | 8 ft | 6 kts | 306° |
| 2026-04-29 21:20 | 43.69329 | 10.40207 | 8 ft | 5 kts | 310° |
| 2026-04-29 21:20 | 43.69341 | 10.40188 | 8 ft | 0 kts | 311° |
| 2026-04-29 21:21 | 43.69342 | 10.40187 | 8 ft | 1 kts | 310° |
| 2026-04-29 21:21 | 43.69355 | 10.40101 | 8 ft | 8 kts | 231° |
| 2026-04-29 21:21 | 43.69291 | 10.40035 | 8 ft | 15 kts | 216° |
| 2026-04-29 21:22 | 43.69243 | 10.39935 | 8 ft | 9 kts | 320° |
| 2026-04-29 21:22 | 43.69313 | 10.39902 | 8 ft | 12 kts | 354° |
| 2026-04-29 21:22 | 43.69414 | 10.39888 | 8 ft | 16 kts | 5° |
| 2026-04-29 21:22 | 43.69534 | 10.39916 | 9 ft | 18 kts | 8° |
| 2026-04-29 21:23 | 43.69637 | 10.39949 | 11 ft | 10 kts | 61° |
| 2026-04-29 21:23 | 43.69632 | 10.39976 | 11 ft | 4 kts | 106° |
| 2026-04-29 21:23 | 43.69635 | 10.39992 | 11 ft | 0 kts | 64° |